Hardisty, Canada
Current Conditions -  °F | °C
As of 6:00 PM on Tuesday 21 Oct 2014 (Local Time) from CYLL Reporting Station
Overcast Overcast  
Wind Chill: 54°   Ceiling: 8000
Heat Index: 54°   Visibility: 15mi
Dew Point: 37°   Wind: 6mph
Humidity: 54%   Direction: 350°N
Pressure: 29.62"   Gusts: NA
Location:  52.68°N, 111.3°W
Report Text: CYLL 220000Z 35005KT 15SM BKN080 OVC260 12/03 A2962 RMK AC7CI1 SLP047 DENSITY ALT 2600FT
Loading
Personal Weather Stations






























Interactive Weather Map
Tropical Storm Tracking
New forecast layout! Learn more

10-Day Weather Forecast

Advertisements
Track Severe Weather on mobile